Terminal Aerodrome Forecast
Issued by NWS Duluth, MN

Home | Current Version | Previous Version | Text Only | Print | Product List | Glossary On
Versions: 1 2 3 4 5 6 7 8 9 10 11 12 13 14 15 16 17 18
000
FTUS43 KDLH 200531
TAFINL
TAF
KINL 200531Z 2006/2106 12009KT P6SM SCT100 BKN200 WS020/17045KT
     FM201100 12009KT P6SM VCSH SCT010 OVC100
      TEMPO 2014/2016 5SM -RA BR BKN010 OVC100
     FM201600 14011G16KT 6SM -RA BR OVC012
     FM201800 15010KT 3SM -RA BR OVC009
     FM210000 19004KT 4SM -RA BR OVC015
     FM210400 26007KT P6SM SCT010 BKN200=

USA.gov is the U.S. government's official web portal to all federal, state and local government web resources and services.